Time;durP1;ratioP1;P1;durP2;ratioP2;P2;SDS_P1;SDS_P2;PMS_P1;PMS_P2;Temp;Humidity;BMP_temperature;BMP_pressure;BME280_temperature;BME280_humidity;BME280_pressure;Samples;Min_cycle;Max_cycle;Signal;HPM_P1;HPM_P2
2021/03/08 00:06:29;;;;;;;9.73;5.77;;;;;;;-0.70;74.03;99380.25;508654;1105;113713;-70
2021/03/08 00:16:34;;;;;;;11.30;7.17;;;;;;;-0.72;74.11;99392.33;508587;1105;113918;-70
2021/03/08 00:26:38;;;;;;;12.50;7.97;;;;;;;-0.75;75.14;99387.22;508683;1105;113712;-69
2021/03/08 00:36:53;;;;;;;11.90;7.80;;;;;;;-0.75;74.25;99389.80;508422;1105;114338;-69
2021/03/08 00:46:56;;;;;;;11.63;5.97;;;;;;;-0.77;74.87;99391.56;509070;1105;113736;-70
2021/03/08 00:57:03;;;;;;;11.77;7.90;;;;;;;-0.78;74.57;99387.28;508999;1105;113682;-69
2021/03/08 01:07:11;;;;;;;13.70;8.50;;;;;;;-0.79;74.54;99385.59;509105;1105;113677;-70
2021/03/08 01:17:14;;;;;;;12.47;7.43;;;;;;;-0.78;74.30;99387.28;508881;1104;113702;-69
2021/03/08 01:27:18;;;;;;;9.00;7.07;;;;;;;-0.77;74.25;99379.53;509135;1105;114228;-70
2021/03/08 01:37:29;;;;;;;9.87;7.57;;;;;;;-0.81;74.74;99377.05;509052;1105;113743;-70
2021/03/08 01:47:32;;;;;;;10.13;7.27;;;;;;;-0.81;74.38;99379.62;508409;1105;113523;-70
2021/03/08 01:57:37;;;;;;;10.03;6.40;;;;;;;-0.85;74.16;99374.54;508810;1105;113793;-70
2021/03/08 02:07:55;;;;;;;9.00;6.10;;;;;;;-0.81;74.83;99362.41;509000;1105;114028;-68
2021/03/08 02:18:08;;;;;;;10.10;6.30;;;;;;;-0.77;75.37;99370.94;509214;1105;114713;-69
2021/03/08 02:28:42;;;;;;;10.87;6.53;;;;;;;-0.79;74.37;99376.14;509080;1105;113933;-70
2021/03/08 02:38:50;;;;;;;11.63;6.97;;;;;;;-0.84;74.96;99390.84;509313;1104;113850;-69
2021/03/08 02:48:54;;;;;;;11.70;7.60;;;;;;;-0.94;74.17;99395.34;509065;1105;113987;-71
2021/03/08 02:59:05;;;;;;;12.07;7.40;;;;;;;-1.11;74.23;99402.55;508946;1105;114148;-69
2021/03/08 03:09:12;;;;;;;15.00;8.10;;;;;;;-1.31;74.10;99419.25;508546;1105;114617;-71
2021/03/08 03:19:19;;;;;;;12.50;8.80;;;;;;;-1.63;73.91;99428.38;508684;1104;114181;-70
2021/03/08 03:29:24;;;;;;;12.43;6.20;;;;;;;-1.96;74.08;99434.04;509381;1105;114391;-71
2021/03/08 03:39:27;;;;;;;12.10;6.70;;;;;;;-2.38;74.02;99450.04;508975;1105;114181;-70
2021/03/08 03:49:30;;;;;;;9.47;6.73;;;;;;;-2.63;75.22;99464.95;509088;1105;114346;-70
2021/03/08 03:59:52;;;;;;;10.57;7.90;;;;;;;-2.86;75.50;99477.18;509037;1105;113743;-69
2021/03/08 04:09:56;;;;;;;13.17;8.00;;;;;;;-3.01;75.40;99477.35;509223;1105;114308;-69
2021/03/08 04:20:14;;;;;;;13.23;8.33;;;;;;;-3.28;76.32;99495.58;509211;1104;113861;-70
2021/03/08 04:30:22;;;;;;;16.13;8.23;;;;;;;-3.49;76.59;99511.16;508855;1105;113883;-70
2021/03/08 04:40:27;;;;;;;15.23;8.97;;;;;;;-3.71;76.60;99522.44;509024;1105;113934;-70
2021/03/08 04:50:34;;;;;;;12.05;6.95;;;;;;;-3.83;77.06;99523.36;509140;1105;114480;-70
2021/03/08 05:00:38;;;;;;;10.87;6.73;;;;;;;-3.96;77.62;99542.25;508922;1105;114453;-69
2021/03/08 05:10:41;;;;;;;11.27;6.93;;;;;;;-4.23;77.98;99549.23;508971;1105;114148;-69
2021/03/08 05:20:47;;;;;;;12.63;7.80;;;;;;;-4.11;78.76;99546.61;508952;1105;114052;-69
2021/03/08 05:30:53;;;;;;;10.63;7.67;;;;;;;-4.12;77.99;99552.61;509141;1105;114085;-69
2021/03/08 05:41:04;;;;;;;14.23;9.43;;;;;;;-3.94;79.24;99564.48;508711;1105;114046;-68
2021/03/08 05:51:51;;;;;;;12.50;7.35;;;;;;;-3.66;78.98;99574.58;509084;1105;114053;-71
2021/03/08 06:02:04;;;;;;;10.87;7.33;;;;;;;-2.29;79.20;99578.53;509036;1105;113928;-70
2021/03/08 06:12:12;;;;;;;8.80;6.60;;;;;;;3.76;75.74;99586.83;508880;1105;113925;-70
2021/03/08 06:22:16;;;;;;;11.20;7.42;;;;;;;9.19;67.21;99600.84;508590;1105;113625;-71
2021/03/08 06:32:20;;;;;;;5.80;5.20;;;;;;;13.09;60.93;99611.35;508902;1105;113719;-74
2021/03/08 06:42:24;;;;;;;6.03;5.40;;;;;;;15.73;54.25;99606.41;509318;1105;113963;-74
2021/03/08 06:52:39;;;;;;;6.55;5.10;;;;;;;16.87;50.89;99621.27;508823;1105;113879;-74
2021/03/08 07:02:47;;;;;;;6.33;4.83;;;;;;;19.04;46.02;99625.86;509171;1105;113900;-66
2021/03/08 07:12:52;;;;;;;5.40;4.30;;;;;;;20.19;42.47;99640.96;508847;1105;113863;-66
2021/03/08 07:22:56;;;;;;;7.83;5.97;;;;;;;21.20;40.37;99640.23;508855;1104;113937;-66
2021/03/08 07:33:03;;;;;;;10.23;6.53;;;;;;;20.43;37.90;99631.39;508562;1103;114131;-66
2021/03/08 07:43:26;;;;;;;5.53;3.47;;;;;;;23.01;33.43;99634.47;510548;1105;114020;-67
2021/03/08 07:53:31;;;;;;;3.33;2.87;;;;;;;20.97;33.03;99640.88;508953;1105;113849;-67
2021/03/08 08:03:35;;;;;;;1.70;1.23;;;;;;;20.28;29.84;99644.52;509157;1105;114158;-65
2021/03/08 08:13:45;;;;;;;6.63;3.17;;;;;;;20.56;29.64;99657.61;509180;1105;114374;-66
2021/03/08 08:23:56;;;;;;;1.90;1.00;;;;;;;16.60;28.16;99673.12;509126;1105;113829;-64
2021/03/08 08:34:20;;;;;;;6.37;5.00;;;;;;;12.11;28.74;99684.13;509179;1105;114368;-60
2021/03/08 08:44:29;;;;;;;2.60;2.20;;;;;;;9.41;31.20;99696.55;508923;1105;113850;-62
2021/03/08 08:54:55;;;;;;;6.73;3.83;;;;;;;14.23;30.28;99686.31;509157;1105;114267;-60
2021/03/08 09:05:02;;;;;;;1.43;1.33;;;;;;;16.44;28.83;99689.52;509098;1105;113866;-60
2021/03/08 09:15:11;;;;;;;3.90;2.08;;;;;;;17.30;27.10;99696.16;509275;1105;114305;-60
2021/03/08 09:25:32;;;;;;;7.03;3.77;;;;;;;9.94;30.21;99700.44;509400;1104;113916;-66
2021/03/08 09:35:37;;;;;;;5.43;2.70;;;;;;;6.13;34.20;99725.01;509097;1105;113781;-62
2021/03/08 09:45:41;;;;;;;6.37;3.40;;;;;;;5.29;36.49;99738.86;509205;1105;113595;-61
2021/03/08 09:55:47;;;;;;;5.65;2.95;;;;;;;4.07;37.48;99746.80;509131;1105;113600;-61
2021/03/08 10:05:53;;;;;;;7.45;2.60;;;;;;;3.40;40.05;99738.62;509053;1105;114496;-65
2021/03/08 10:15:58;;;;;;;2.67;1.73;;;;;;;3.03;40.18;99753.59;509244;1105;113593;-66
2021/03/08 10:26:05;;;;;;;10.03;2.70;;;;;;;2.82;41.01;99762.87;509142;1105;113534;-63
2021/03/08 10:36:09;;;;;;;8.90;3.85;;;;;;;2.78;40.56;99769.05;508905;1105;113800;-59
2021/03/08 10:46:13;;;;;;;3.00;1.20;;;;;;;2.57;39.93;99784.31;508987;1105;113594;-69
2021/03/08 10:56:21;;;;;;;3.37;1.73;;;;;;;2.55;40.22;99775.73;509054;1104;113592;-64
2021/03/08 11:06:25;;;;;;;4.20;1.57;;;;;;;2.56;40.43;99782.63;509164;1105;113590;-66
2021/03/08 11:16:32;;;;;;;3.03;1.83;;;;;;;2.31;41.32;99788.48;509097;1105;113712;-69
2021/03/08 11:26:36;;;;;;;7.53;2.60;;;;;;;2.54;41.23;99783.55;509213;1105;113531;-66
2021/03/08 11:36:47;;;;;;;4.30;1.90;;;;;;;2.86;41.72;99786.98;509162;1105;113623;-65
2021/03/08 11:46:50;;;;;;;2.70;1.70;;;;;;;2.49;41.82;99791.45;509510;1105;113760;-69
2021/03/08 11:56:56;;;;;;;6.83;3.83;;;;;;;2.38;41.69;99789.16;509133;1105;114089;-63
2021/03/08 12:07:00;;;;;;;4.35;0.90;;;;;;;2.63;40.94;99786.72;509244;1105;115102;-62
2021/03/08 12:17:24;;;;;;;4.63;1.27;;;;;;;2.71;41.84;99790.85;509181;1103;113698;-62
2021/03/08 12:27:28;;;;;;;3.27;1.93;;;;;;;2.88;42.08;99785.18;509328;1105;113614;-63
2021/03/08 12:37:32;;;;;;;2.30;0.80;;;;;;;2.78;41.24;99790.63;509222;1105;113649;-64
2021/03/08 12:47:36;;;;;;;5.97;1.90;;;;;;;2.72;41.59;99797.73;508715;1105;114397;-64
2021/03/08 12:57:40;;;;;;;3.03;1.30;;;;;;;2.72;41.70;99805.52;508725;1105;113930;-65
2021/03/08 13:07:46;;;;;;;8.90;3.93;;;;;;;3.07;42.91;99811.42;509291;1104;114175;-63
2021/03/08 13:17:52;;;;;;;3.13;2.00;;;;;;;3.44;41.76;99812.07;509384;1105;114081;-65
2021/03/08 13:27:59;;;;;;;4.43;1.83;;;;;;;2.88;42.40;99814.55;509195;1105;113498;-66
2021/03/08 13:38:03;;;;;;;4.27;2.70;;;;;;;2.74;42.96;99822.73;509342;1104;114113;-68
2021/03/08 13:48:06;;;;;;;4.60;2.70;;;;;;;2.30;44.40;99815.26;509160;1105;114405;-63
2021/03/08 13:58:10;;;;;;;4.55;1.85;;;;;;;2.57;44.87;99819.75;509071;1105;113589;-67
2021/03/08 14:08:13;;;;;;;3.83;1.50;;;;;;;2.78;42.67;99818.32;509198;1103;113533;-64
2021/03/08 14:18:20;;;;;;;6.93;2.70;;;;;;;2.85;43.56;99830.20;509241;1103;113590;-62
2021/03/08 14:28:24;;;;;;;4.17;2.03;;;;;;;2.46;44.05;99823.48;509205;1104;114464;-61
2021/03/08 14:38:31;;;;;;;4.83;1.80;;;;;;;2.09;43.02;99833.08;509514;1105;113560;-63
2021/03/08 14:48:35;;;;;;;2.40;1.20;;;;;;;2.12;43.41;99833.89;509463;1103;113939;-62
2021/03/08 14:58:40;;;;;;;5.40;2.10;;;;;;;1.81;43.08;99836.33;509139;1102;113934;-60
2021/03/08 15:08:43;;;;;;;4.20;2.00;;;;;;;1.65;43.73;99847.95;509359;1103;113612;-61
2021/03/08 15:18:49;;;;;;;7.17;3.57;;;;;;;1.62;43.67;99860.97;509372;1105;114322;-61
2021/03/08 15:28:53;;;;;;;3.23;1.93;;;;;;;1.41;44.60;99857.97;509169;1105;114280;-60
2021/03/08 15:38:57;;;;;;;6.30;2.60;;;;;;;1.34;46.46;99861.56;509229;1105;113563;-61
2021/03/08 15:49:00;;;;;;;4.87;2.60;;;;;;;1.17;47.41;99862.79;509298;1104;113872;-60
2021/03/08 15:59:04;;;;;;;3.93;2.47;;;;;;;1.04;46.90;99866.48;509265;1103;113528;-62
2021/03/08 16:09:08;;;;;;;3.90;2.60;;;;;;;0.82;47.40;99872.95;509239;1105;113501;-63
2021/03/08 16:19:11;;;;;;;4.60;2.45;;;;;;;0.63;48.43;99869.86;500289;1105;10001088;-72
2021/03/08 16:29:18;;;;;;;3.57;2.43;;;;;;;0.40;48.42;99891.80;508844;1105;114323;-70
2021/03/08 16:39:22;;;;;;;8.45;3.42;;;;;;;0.22;48.63;99895.55;508881;1105;113797;-62
2021/03/08 16:49:31;;;;;;;6.87;3.90;;;;;;;0.02;48.61;99901.05;508916;1105;113920;-66
2021/03/08 16:59:35;;;;;;;5.57;2.43;;;;;;;-0.19;49.52;99913.39;508879;1105;115277;-68
2021/03/08 17:09:41;;;;;;;9.70;3.67;;;;;;;-0.38;48.97;99925.70;509065;1104;114207;-64
2021/03/08 17:19:55;;;;;;;4.73;2.63;;;;;;;-0.61;49.62;99932.02;507929;1105;114192;-64
2021/03/08 17:30:00;;;;;;;5.50;3.13;;;;;;;-0.80;50.05;99939.13;508095;1105;113873;-64
2021/03/08 17:40:04;;;;;;;13.70;4.93;;;;;;;-0.91;50.52;99953.88;508389;1105;114428;-64
2021/03/08 17:50:17;;;;;;;24.53;9.50;;;;;;;-0.88;51.48;99962.41;521652;1105;114730;-64
2021/03/08 18:00:23;;;;;;;14.10;6.17;;;;;;;-0.75;50.99;99962.26;511041;1105;114262;-64
2021/03/08 18:10:31;;;;;;;15.40;7.20;;;;;;;-0.81;51.42;99963.19;509284;1103;114431;-65
2021/03/08 18:20:43;;;;;;;16.80;8.77;;;;;;;-0.95;51.77;99975.38;509360;1103;114631;-65
2021/03/08 18:30:49;;;;;;;27.90;10.60;;;;;;;-1.15;51.83;99977.30;509504;1105;114303;-65
2021/03/08 18:40:52;;;;;;;22.00;10.55;;;;;;;-1.41;52.67;99982.67;509251;1103;114953;-65
2021/03/08 18:51:05;;;;;;;23.70;12.37;;;;;;;-1.67;52.51;99988.03;509268;1103;114574;-65
2021/03/08 19:01:11;;;;;;;17.77;10.10;;;;;;;-1.80;53.25;99995.00;509275;1104;114647;-64
2021/03/08 19:11:14;;;;;;;21.07;11.55;;;;;;;-1.91;53.38;99992.48;500451;1105;10001645;-65
2021/03/08 19:21:29;;;;;;;21.83;10.03;;;;;;;-1.94;54.43;99993.37;508602;1104;114837;-65
2021/03/08 19:31:33;;;;;;;38.10;20.13;;;;;;;-1.86;55.35;100001.88;508689;1103;114522;-64
2021/03/08 19:41:37;;;;;;;21.73;10.03;;;;;;;-1.82;55.04;100001.89;508797;1105;114548;-64
2021/03/08 19:51:49;;;;;;;19.13;11.37;;;;;;;-1.93;55.29;100012.23;508710;1103;114279;-64
2021/03/08 20:01:56;;;;;;;27.70;14.87;;;;;;;-2.15;56.38;100018.36;508641;1103;114290;-64
2021/03/08 20:12:04;;;;;;;21.73;12.85;;;;;;;-2.34;57.10;100014.16;508635;1105;114668;-69
2021/03/08 20:22:09;;;;;;;17.10;11.00;;;;;;;-2.44;56.82;100027.05;508853;1104;114353;-67
2021/03/08 20:32:12;;;;;;;12.73;8.23;;;;;;;-2.63;57.98;100012.56;508869;1105;114706;-68
2021/03/08 20:42:16;;;;;;;15.53;9.27;;;;;;;-2.83;58.66;100023.74;509207;1103;115032;-67
2021/03/08 20:52:32;;;;;;;42.15;20.15;;;;;;;-2.98;59.14;100034.89;508543;1105;114530;-67
2021/03/08 21:02:36;;;;;;;33.30;16.17;;;;;;;-3.12;60.16;100028.06;508544;1104;114322;-67
2021/03/08 21:12:40;;;;;;;28.23;15.20;;;;;;;-3.21;60.76;100030.63;508488;1105;114352;-69
2021/03/08 21:22:56;;;;;;;26.23;12.50;;;;;;;-3.29;60.63;100020.37;508634;1103;114821;-69
2021/03/08 21:33:00;;;;;;;23.30;13.33;;;;;;;-3.42;61.01;100028.94;508863;1105;114693;-70
2021/03/08 21:43:03;;;;;;;14.57;8.90;;;;;;;-3.50;62.42;100022.93;509031;1103;114174;-70
2021/03/08 21:53:18;;;;;;;12.13;7.60;;;;;;;-3.63;62.64;100030.63;508904;1104;114206;-69
2021/03/08 22:03:21;;;;;;;17.90;10.73;;;;;;;-3.70;63.61;100039.16;508970;1105;114449;-65
2021/03/08 22:13:28;;;;;;;26.67;12.83;;;;;;;-3.78;63.86;100036.58;508742;1105;114422;-61
2021/03/08 22:23:38;;;;;;;19.05;10.20;;;;;;;-4.11;64.00;100033.95;509110;1105;114435;-60
2021/03/08 22:33:42;;;;;;;15.93;8.50;;;;;;;-4.42;64.36;100036.38;509209;1104;114920;-61
2021/03/08 22:43:45;;;;;;;20.17;12.17;;;;;;;-4.62;64.91;100045.67;509136;1104;115075;-62
2021/03/08 22:54:06;;;;;;;24.67;11.23;;;;;;;-4.85;65.59;100042.14;508916;1103;114938;-58
2021/03/08 23:04:12;;;;;;;33.50;15.77;;;;;;;-5.01;65.71;100043.73;508961;1105;115509;-61
2021/03/08 23:14:19;;;;;;;40.07;19.47;;;;;;;-5.17;66.65;100053.02;508865;1103;114971;-62
2021/03/08 23:24:24;;;;;;;47.60;22.20;;;;;;;-5.36;67.20;100054.56;508871;1105;114500;-66
2021/03/08 23:34:27;;;;;;;39.57;19.70;;;;;;;-5.52;67.60;100053.57;508926;1105;114892;-67
2021/03/08 23:44:30;;;;;;;33.53;17.03;;;;;;;-5.64;67.15;100060.28;509161;1104;114629;-74
2021/03/08 23:54:49;;;;;;;26.55;16.45;;;;;;;-5.64;67.60;100062.01;508825;1105;114630;-73
